createdAt,value
2018-11-14T00:00:27.423Z,10.80
2018-11-14T00:02:54.915Z,11.03
2018-11-14T00:05:21.960Z,10.77
2018-11-14T00:07:49.372Z,10.20
2018-11-14T00:10:16.905Z,8.80
2018-11-14T00:12:43.639Z,9.50
2018-11-14T00:15:12.744Z,9.90
2018-11-14T00:17:40.047Z,10.00
2018-11-14T00:20:08.116Z,10.67
2018-11-14T00:22:35.364Z,10.20
2018-11-14T00:25:02.545Z,9.67
2018-11-14T00:27:29.608Z,9.90
2018-11-14T00:29:56.896Z,9.73
2018-11-14T00:32:23.949Z,10.13
2018-11-14T00:34:51.048Z,9.20
2018-11-14T00:37:18.047Z,11.53
2018-11-14T00:39:45.089Z,10.60
2018-11-14T00:42:12.181Z,11.30
2018-11-14T00:44:39.511Z,10.40
2018-11-14T00:47:06.547Z,11.23
2018-11-14T00:49:33.587Z,12.10
2018-11-14T00:52:00.660Z,14.60
2018-11-14T00:54:27.767Z,21.20
2018-11-14T00:56:54.900Z,20.53
2018-11-14T00:59:22.271Z,13.80
2018-11-14T01:01:49.316Z,14.57
2018-11-14T01:04:16.398Z,11.07
2018-11-14T01:06:43.747Z,15.87
2018-11-14T01:09:12.091Z,12.40
2018-11-14T01:11:39.172Z,13.47
2018-11-14T01:14:06.788Z,14.63
2018-11-14T01:16:33.900Z,19.37
2018-11-14T01:19:00.951Z,18.33
2018-11-14T01:21:28.226Z,14.90
2018-11-14T01:23:55.264Z,13.30
2018-11-14T01:26:22.310Z,17.13
2018-11-14T01:28:49.600Z,11.97
2018-11-14T01:31:16.645Z,11.30
2018-11-14T01:33:43.683Z,12.00
2018-11-14T01:36:10.996Z,11.80
2018-11-14T01:38:38.092Z,12.00
2018-11-14T01:41:05.214Z,11.50
2018-11-14T01:43:32.585Z,12.57
2018-11-14T01:45:59.612Z,11.73
2018-11-14T01:48:26.691Z,12.43
2018-11-14T01:50:53.980Z,13.50
2018-11-14T01:53:21.016Z,11.50
2018-11-14T01:55:48.151Z,11.00
2018-11-14T01:58:15.221Z,12.67
2018-11-14T02:00:42.264Z,13.80
2018-11-14T02:03:09.311Z,14.37
2018-11-14T02:05:36.887Z,13.23
2018-11-14T02:08:04.248Z,12.57
2018-11-14T02:10:31.308Z,13.03
2018-11-14T02:12:58.384Z,11.23
2018-11-14T02:15:25.444Z,13.30
2018-11-14T02:17:52.867Z,13.50
2018-11-14T02:20:20.203Z,14.00
2018-11-14T02:22:47.468Z,11.90
2018-11-14T02:25:15.037Z,12.97
2018-11-14T02:27:42.226Z,14.20
2018-11-14T02:30:10.064Z,12.23
2018-11-14T02:32:37.409Z,13.87
2018-11-14T02:35:04.845Z,14.60
2018-11-14T02:37:31.883Z,13.20
2018-11-14T02:39:58.948Z,13.13
2018-11-14T02:42:26.003Z,12.50
2018-11-14T02:44:53.047Z,14.17
2018-11-14T02:47:20.088Z,14.03
2018-11-14T02:49:47.219Z,13.07
2018-11-14T02:52:14.270Z,12.30
2018-11-14T02:54:41.298Z,13.07
2018-11-14T02:57:08.595Z,13.47
2018-11-14T02:59:35.672Z,13.47
2018-11-14T03:02:02.733Z,13.37
2018-11-14T03:04:29.816Z,12.43
2018-11-14T03:06:56.859Z,13.57
2018-11-14T03:09:23.895Z,14.77
2018-11-14T03:11:50.935Z,13.80
2018-11-14T03:14:17.957Z,14.40
2018-11-14T03:16:45.000Z,14.27
2018-11-14T03:19:12.284Z,14.57
2018-11-14T03:21:39.312Z,15.40
2018-11-14T03:24:06.412Z,15.30
2018-11-14T03:26:33.529Z,14.30
2018-11-14T03:29:00.580Z,15.07
2018-11-14T03:31:27.624Z,16.43
2018-11-14T03:33:54.720Z,15.97
2018-11-14T03:36:21.820Z,15.97
2018-11-14T03:38:49.128Z,15.10
2018-11-14T03:41:16.180Z,15.60
2018-11-14T03:43:43.315Z,16.57
2018-11-14T03:46:10.335Z,15.37
2018-11-14T03:48:37.416Z,16.30
2018-11-14T03:51:04.461Z,15.60
2018-11-14T03:53:31.528Z,15.27
2018-11-14T03:55:58.855Z,14.30
2018-11-14T03:58:26.048Z,13.80
2018-11-14T04:00:52.997Z,15.07
2018-11-14T04:03:20.325Z,14.83
2018-11-14T04:05:47.412Z,14.67
2018-11-14T04:08:14.444Z,15.30
2018-11-14T04:10:41.498Z,15.80
2018-11-14T04:13:08.528Z,14.70
2018-11-14T04:15:35.608Z,15.27
2018-11-14T04:18:02.901Z,15.97
2018-11-14T04:20:29.949Z,14.90
2018-11-14T04:22:57.013Z,15.37
2018-11-14T04:25:24.456Z,16.27
2018-11-14T04:27:51.474Z,18.10
2018-11-14T04:30:19.765Z,16.93
2018-11-14T04:32:47.244Z,16.23
2018-11-14T04:35:15.235Z,18.87
2018-11-14T04:37:42.292Z,17.93
2018-11-14T04:40:10.760Z,18.57
2018-11-14T04:42:38.211Z,18.73
2018-11-14T04:45:05.995Z,17.43
2018-11-14T04:47:33.408Z,18.53
2018-11-14T04:50:00.452Z,19.07
2018-11-14T04:52:27.559Z,18.03
2018-11-14T04:54:54.864Z,18.20
2018-11-14T04:57:21.884Z,18.60
2018-11-14T04:59:48.913Z,17.20
2018-11-14T05:02:16.526Z,18.17
2018-11-14T05:04:43.557Z,18.70
2018-11-14T05:07:10.592Z,18.80
2018-11-14T05:09:37.732Z,18.43
2018-11-14T05:12:04.791Z,20.10
2018-11-14T05:14:31.819Z,19.00
2018-11-14T05:16:59.093Z,18.33
2018-11-14T05:19:26.240Z,20.07
2018-11-14T05:21:53.283Z,19.43
2018-11-14T05:24:20.688Z,18.73
2018-11-14T05:26:47.772Z,17.73
2018-11-14T05:29:14.804Z,19.47
2018-11-14T05:31:41.960Z,19.27
2018-11-14T05:34:09.035Z,20.77
2018-11-14T05:36:36.061Z,18.83
2018-11-14T05:39:05.000Z,19.60
2018-11-14T05:41:32.041Z,19.17
2018-11-14T05:43:59.092Z,19.57
2018-11-14T05:46:26.220Z,20.13
2018-11-14T05:48:53.240Z,20.50
2018-11-14T05:51:20.287Z,21.13
2018-11-14T05:53:47.556Z,19.40
2018-11-14T05:56:14.579Z,21.10
2018-11-14T05:58:41.815Z,20.27
2018-11-14T06:01:08.896Z,20.70
2018-11-14T06:03:35.935Z,21.07
2018-11-14T06:06:02.976Z,19.50
2018-11-14T06:08:30.036Z,20.43
2018-11-14T06:10:57.060Z,21.17
2018-11-14T06:13:24.143Z,20.97
2018-11-14T06:15:51.551Z,21.70
2018-11-14T06:18:18.583Z,19.90
2018-11-14T06:20:45.627Z,21.23
2018-11-14T06:23:12.732Z,21.17
2018-11-14T06:25:39.760Z,24.37
2018-11-14T06:28:08.131Z,22.27
2018-11-14T06:30:35.915Z,23.60
2018-11-14T06:33:03.916Z,24.13
2018-11-14T06:35:30.941Z,22.40
2018-11-14T06:37:58.067Z,21.23
2018-11-14T06:40:25.096Z,23.20
2018-11-14T06:42:52.172Z,23.17
2018-11-14T06:45:20.559Z,21.70
2018-11-14T06:47:48.720Z,21.93
2018-11-14T06:50:15.836Z,20.20
2018-11-14T06:52:43.930Z,23.20
2018-11-14T06:55:12.452Z,22.30
2018-11-14T06:57:39.579Z,24.03
2018-11-14T07:00:07.929Z,22.10
2018-11-14T07:02:38.337Z,22.10
2018-11-14T07:05:02.100Z,20.63
2018-11-14T07:07:29.156Z,20.67
2018-11-14T07:09:56.216Z,20.03
2018-11-14T07:12:23.245Z,20.80
2018-11-14T07:14:50.355Z,21.43
2018-11-14T07:17:17.588Z,22.13
2018-11-14T07:19:44.628Z,20.13
2018-11-14T07:22:11.976Z,21.40
2018-11-14T07:24:39.090Z,21.00
2018-11-14T07:27:06.056Z,19.47
2018-11-14T07:29:33.531Z,22.00
2018-11-14T07:32:00.648Z,22.60
2018-11-14T07:34:27.659Z,21.53
2018-11-14T07:36:54.724Z,19.63
2018-11-14T07:39:21.796Z,20.73
2018-11-14T07:41:48.963Z,20.77
2018-11-14T07:44:16.296Z,21.03
2018-11-14T07:46:43.395Z,20.60
2018-11-14T07:49:10.528Z,19.77
2018-11-14T07:51:37.752Z,18.13
2018-11-14T07:54:04.821Z,19.23
2018-11-14T07:56:31.856Z,20.87
2018-11-14T07:58:58.897Z,20.50
2018-11-14T08:01:25.971Z,19.00
2018-11-14T08:03:52.995Z,19.30
2018-11-14T08:06:20.264Z,18.47
2018-11-14T08:08:47.446Z,20.97
2018-11-14T08:11:14.561Z,19.37
2018-11-14T08:13:43.159Z,19.30
2018-11-14T08:16:10.212Z,20.10
2018-11-14T08:18:37.296Z,19.80
2018-11-14T08:21:04.744Z,19.80
2018-11-14T08:23:31.800Z,20.40
2018-11-14T08:25:58.871Z,17.40
2018-11-14T08:28:25.920Z,19.53
2018-11-14T08:30:53.046Z,17.33
2018-11-14T08:33:20.128Z,19.10
2018-11-14T08:35:47.523Z,18.23
2018-11-14T08:38:14.559Z,17.43
2018-11-14T08:40:41.667Z,17.90
2018-11-14T08:43:08.777Z,18.17
2018-11-14T08:45:35.814Z,17.20
2018-11-14T08:48:03.078Z,16.50
2018-11-14T08:50:30.253Z,16.50
2018-11-14T08:52:57.191Z,17.20
2018-11-14T08:55:24.308Z,17.03
2018-11-14T08:57:51.451Z,17.17
2018-11-14T09:00:23.765Z,16.70
2018-11-14T09:02:51.315Z,17.00
2018-11-14T09:05:18.433Z,16.27
2018-11-14T09:07:45.640Z,16.40
2018-11-14T09:10:14.851Z,17.10
2018-11-14T09:12:42.720Z,15.80
2018-11-14T09:15:11.192Z,17.13
2018-11-14T09:17:38.231Z,16.50
2018-11-14T09:20:05.875Z,15.97
2018-11-14T09:22:32.952Z,16.10
2018-11-14T09:25:00.145Z,16.70
2018-11-14T09:27:27.135Z,16.63
2018-11-14T09:29:54.206Z,15.47
2018-11-14T09:32:21.515Z,15.33
2018-11-14T09:34:49.048Z,15.80
2018-11-14T09:37:16.120Z,16.30
2018-11-14T09:39:43.168Z,16.57
2018-11-14T09:42:10.704Z,16.23
2018-11-14T09:44:37.774Z,16.50
2018-11-14T09:47:04.809Z,13.80
2018-11-14T09:49:31.964Z,14.93
2018-11-14T09:51:58.980Z,15.07
2018-11-14T09:54:26.061Z,15.40
2018-11-14T09:56:53.435Z,20.03
2018-11-14T09:59:20.529Z,14.73
2018-11-14T10:01:47.575Z,15.33
2018-11-14T10:04:14.958Z,14.70
2018-11-14T10:06:42.544Z,16.37
2018-11-14T10:09:11.112Z,15.47
2018-11-14T10:11:38.248Z,14.13
2018-11-14T10:14:05.568Z,25.83
2018-11-14T10:16:32.612Z,15.63
2018-11-14T10:18:59.684Z,16.00
2018-11-14T10:21:26.792Z,17.13
2018-11-14T10:23:53.783Z,15.83
2018-11-14T10:26:21.247Z,15.20
2018-11-14T10:28:48.280Z,15.73
2018-11-14T10:31:15.344Z,14.97
2018-11-14T10:33:42.801Z,14.97
2018-11-14T10:36:09.943Z,13.20
2018-11-14T10:38:36.985Z,12.00
2018-11-14T10:41:04.424Z,13.40
2018-11-14T10:43:31.555Z,13.70
2018-11-14T10:45:58.624Z,14.70
2018-11-14T10:48:26.018Z,13.93
2018-11-14T10:50:53.114Z,12.70
2018-11-14T10:53:20.110Z,13.90
2018-11-14T10:55:47.421Z,14.47
2018-11-14T10:58:14.559Z,15.03
2018-11-14T11:00:47.281Z,14.00
2018-11-14T11:03:20.488Z,13.67
2018-11-14T11:05:53.578Z,14.93
2018-11-14T11:08:22.770Z,13.47
2018-11-14T11:10:55.865Z,19.10
2018-11-14T11:13:28.871Z,13.20
2018-11-14T11:16:01.648Z,16.13
2018-11-14T11:18:31.071Z,13.70
2018-11-14T11:20:58.114Z,13.40
2018-11-14T11:23:25.619Z,13.60
2018-11-14T11:25:52.764Z,13.67
2018-11-14T11:28:20.180Z,12.70
2018-11-14T11:30:47.307Z,14.13
2018-11-14T11:33:14.391Z,14.03
2018-11-14T11:35:41.448Z,14.83
2018-11-14T11:38:08.790Z,13.97
2018-11-14T11:40:35.886Z,15.63
2018-11-14T11:43:03.935Z,13.93
2018-11-14T11:45:31.609Z,13.53
2018-11-14T11:47:58.707Z,11.30
2018-11-14T11:50:25.760Z,12.53
2018-11-14T11:52:53.216Z,13.37
2018-11-14T11:55:20.370Z,12.70
2018-11-14T11:57:47.504Z,13.90
2018-11-14T12:00:14.975Z,11.83
2018-11-14T12:02:42.864Z,12.30
2018-11-14T12:05:11.127Z,13.00
2018-11-14T12:07:38.215Z,13.00
2018-11-14T12:10:05.612Z,13.93
2018-11-14T12:12:32.689Z,13.10
2018-11-14T12:15:00.108Z,12.63
2018-11-14T12:17:27.136Z,12.47
2018-11-14T12:19:54.170Z,11.57
2018-11-14T12:22:21.276Z,14.87
2018-11-14T12:24:48.308Z,11.33
2018-11-14T12:27:15.491Z,11.30
2018-11-14T12:29:42.894Z,13.07
2018-11-14T12:32:09.921Z,11.67
2018-11-14T12:34:37.019Z,13.43
2018-11-14T12:37:04.548Z,15.30
2018-11-14T12:39:31.592Z,12.87
2018-11-14T12:41:58.620Z,10.80
2018-11-14T12:44:26.032Z,10.97
2018-11-14T12:46:53.059Z,10.70
2018-11-14T12:49:20.098Z,12.83
2018-11-14T12:51:47.468Z,11.67
2018-11-14T12:54:14.536Z,12.13
2018-11-14T12:56:41.576Z,11.20
2018-11-14T12:59:09.015Z,11.97
2018-11-14T13:01:36.079Z,12.27
2018-11-14T13:04:03.140Z,10.67
2018-11-14T13:06:30.462Z,11.30
2018-11-14T13:08:57.499Z,13.83
2018-11-14T13:11:24.648Z,11.83
2018-11-14T13:13:51.928Z,11.83
2018-11-14T13:16:18.987Z,10.23
2018-11-14T13:18:46.040Z,9.63
2018-11-14T13:21:13.582Z,11.00
2018-11-14T13:23:40.847Z,11.00
2018-11-14T13:26:08.500Z,11.60
2018-11-14T13:28:36.001Z,13.03
2018-11-14T13:31:03.227Z,14.70
2018-11-14T13:33:30.475Z,14.93
2018-11-14T13:35:57.751Z,14.30
2018-11-14T13:38:24.804Z,13.37
2018-11-14T13:40:51.869Z,12.30
2018-11-14T13:43:19.081Z,12.47
2018-11-14T13:45:46.011Z,11.50
2018-11-14T13:48:13.066Z,13.13
2018-11-14T13:50:40.613Z,12.10
2018-11-14T13:53:07.508Z,13.27
2018-11-14T13:55:34.545Z,13.40
2018-11-14T13:58:01.906Z,13.90
2018-11-14T14:00:28.964Z,13.60
2018-11-14T14:02:56.024Z,15.10
2018-11-14T14:05:24.122Z,15.17
2018-11-14T14:07:51.171Z,15.93
2018-11-14T14:10:18.531Z,15.87
2018-11-14T14:12:47.923Z,15.37
2018-11-14T14:15:19.211Z,17.50
2018-11-14T14:17:46.850Z,18.70
2018-11-14T14:20:14.648Z,17.57
2018-11-14T14:22:41.832Z,18.43
2018-11-14T14:25:10.388Z,18.83
2018-11-14T14:27:37.516Z,17.43
2018-11-14T14:30:05.601Z,17.30
2018-11-14T14:32:32.636Z,18.53
2018-11-14T14:34:59.920Z,18.90
2018-11-14T14:37:26.975Z,20.00
2018-11-14T14:39:54.056Z,17.83
2018-11-14T14:42:21.408Z,18.00
2018-11-14T14:44:48.482Z,17.33
2018-11-14T14:47:15.568Z,20.47
2018-11-14T14:49:42.884Z,20.73
2018-11-14T14:52:10.016Z,21.60
2018-11-14T14:54:37.093Z,20.13
2018-11-14T14:57:04.637Z,17.37
2018-11-14T14:59:31.712Z,18.23
2018-11-14T15:01:58.816Z,21.57
2018-11-14T15:04:26.156Z,22.53
2018-11-14T15:06:53.229Z,22.13
2018-11-14T15:09:20.300Z,22.00
2018-11-14T15:11:47.437Z,22.03
2018-11-14T15:14:14.564Z,22.43
2018-11-14T15:16:41.612Z,21.67
2018-11-14T15:19:08.684Z,21.90
2018-11-14T15:21:35.769Z,22.27
2018-11-14T15:24:02.896Z,22.57
2018-11-14T15:26:30.013Z,23.80
2018-11-14T15:28:57.175Z,25.07
2018-11-14T15:31:24.139Z,25.10
2018-11-14T15:33:51.567Z,23.77
2018-11-14T15:36:18.667Z,23.90
2018-11-14T15:38:45.706Z,22.00
2018-11-14T15:41:13.020Z,23.30
2018-11-14T15:43:40.136Z,24.73
2018-11-14T15:46:07.207Z,25.67
2018-11-14T15:48:34.323Z,24.40
2018-11-14T15:51:01.352Z,30.83
2018-11-14T15:53:28.431Z,26.97
2018-11-14T15:55:55.816Z,23.90
2018-11-14T15:58:22.854Z,26.63
2018-11-14T16:00:50.028Z,25.60
2018-11-14T16:03:17.075Z,25.33
2018-11-14T16:05:44.173Z,26.80
2018-11-14T16:08:11.204Z,27.50
2018-11-14T16:10:38.616Z,26.27
2018-11-14T16:13:05.664Z,26.70
2018-11-14T16:15:34.918Z,27.87
2018-11-14T16:18:02.292Z,29.70
2018-11-14T16:20:29.325Z,30.50
2018-11-14T16:22:56.396Z,33.63
2018-11-14T16:25:24.416Z,29.43
2018-11-14T16:27:53.115Z,31.27
2018-11-14T16:30:21.810Z,27.20
2018-11-14T16:32:50.078Z,28.77
2018-11-14T16:35:17.245Z,25.30
2018-11-14T16:37:44.347Z,26.40
2018-11-14T16:40:14.199Z,27.40
2018-11-14T16:42:41.484Z,26.57
2018-11-14T16:45:09.079Z,26.50
2018-11-14T16:47:36.444Z,28.63
2018-11-14T16:50:03.577Z,23.77
2018-11-14T16:52:30.752Z,24.00
2018-11-14T16:54:58.177Z,25.23
2018-11-14T16:57:32.094Z,28.03
2018-11-14T16:59:59.451Z,25.80
2018-11-14T17:02:26.476Z,27.10
2018-11-14T17:04:53.641Z,28.10
2018-11-14T17:07:20.695Z,26.77
2018-11-14T17:09:47.737Z,27.67
2018-11-14T17:12:14.912Z,26.40
2018-11-14T17:14:42.252Z,26.57
2018-11-14T17:17:09.292Z,27.13
2018-11-14T17:19:36.358Z,25.13
2018-11-14T17:22:03.929Z,28.17
2018-11-14T17:24:31.631Z,27.47
2018-11-14T17:26:59.154Z,25.47
2018-11-14T17:29:26.590Z,26.50
2018-11-14T17:31:53.671Z,26.70
2018-11-14T17:34:20.722Z,27.03
2018-11-14T17:36:48.143Z,28.13
2018-11-14T17:39:15.271Z,27.70
2018-11-14T17:41:43.038Z,32.40
2018-11-14T17:44:10.524Z,32.07
2018-11-14T17:46:37.719Z,29.60
2018-11-14T17:49:04.777Z,31.30
2018-11-14T17:51:31.976Z,32.40
2018-11-14T17:53:59.105Z,33.37
2018-11-14T17:56:26.204Z,29.50
2018-11-14T17:58:53.284Z,33.47
2018-11-14T18:01:20.460Z,29.90
2018-11-14T18:03:47.570Z,29.67
2018-11-14T18:06:15.068Z,27.87
2018-11-14T18:08:42.220Z,29.87
2018-11-14T18:11:09.320Z,28.70
2018-11-14T18:13:36.980Z,28.40
2018-11-14T18:16:04.325Z,29.40
2018-11-14T18:18:31.399Z,30.13
2018-11-14T18:20:58.887Z,28.57
2018-11-14T18:23:25.954Z,28.73
2018-11-14T18:25:53.023Z,28.20
2018-11-14T18:28:20.439Z,29.03
2018-11-14T18:30:47.549Z,29.87
2018-11-14T18:33:14.604Z,29.20
2018-11-14T18:35:42.000Z,31.40
2018-11-14T18:38:09.074Z,29.57
2018-11-14T18:40:36.133Z,30.97
2018-11-14T18:43:03.571Z,29.80
2018-11-14T18:45:32.069Z,29.07
2018-11-14T18:48:00.046Z,30.77
2018-11-14T18:50:27.519Z,29.67
2018-11-14T18:52:54.567Z,29.40
2018-11-14T18:55:24.864Z,30.50
2018-11-14T18:57:52.113Z,28.83
2018-11-14T19:00:21.509Z,28.87
2018-11-14T19:02:48.643Z,29.50
2018-11-14T19:05:16.714Z,28.83
2018-11-14T19:07:43.923Z,29.70
2018-11-14T19:10:11.967Z,31.10
2018-11-14T19:12:40.603Z,30.60
2018-11-14T19:15:08.597Z,33.07
2018-11-14T19:17:35.641Z,33.80
2018-11-14T19:20:02.787Z,36.63
2018-11-14T19:22:29.845Z,40.17
2018-11-14T19:24:56.917Z,39.43
2018-11-14T19:27:24.375Z,41.30
2018-11-14T19:29:51.444Z,39.60
2018-11-14T19:32:18.555Z,37.60
2018-11-14T19:34:45.901Z,35.13
2018-11-14T19:37:12.955Z,34.83
2018-11-14T19:39:40.015Z,34.57
2018-11-14T19:42:07.469Z,36.93
2018-11-14T19:44:34.732Z,33.10
2018-11-14T19:47:01.869Z,32.13
2018-11-14T19:49:29.109Z,31.73
2018-11-14T19:51:56.103Z,35.87
2018-11-14T19:54:23.196Z,31.10
2018-11-14T19:56:50.648Z,28.33
2018-11-14T19:59:17.784Z,33.27
2018-11-14T20:01:44.861Z,31.93
2018-11-14T20:04:11.912Z,32.87
2018-11-14T20:06:39.004Z,32.33
2018-11-14T20:09:07.460Z,32.17
2018-11-14T20:11:34.544Z,33.53
2018-11-14T20:14:01.606Z,31.83
2018-11-14T20:16:28.700Z,30.57
2018-11-14T20:18:56.015Z,30.00
2018-11-14T20:21:23.117Z,31.07
2018-11-14T20:23:50.240Z,29.67
2018-11-14T20:26:17.732Z,28.63
2018-11-14T20:28:44.766Z,32.50
2018-11-14T20:31:11.816Z,29.23
2018-11-14T20:33:38.877Z,29.67
2018-11-14T20:36:06.017Z,31.27
2018-11-14T20:38:33.115Z,33.13
2018-11-14T20:41:00.549Z,31.47
2018-11-14T20:43:27.605Z,30.10
2018-11-14T20:45:54.684Z,31.03
2018-11-14T20:48:22.031Z,32.53
2018-11-14T20:50:49.096Z,30.70
2018-11-14T20:53:16.166Z,31.70
2018-11-14T20:55:43.624Z,31.60
2018-11-14T20:58:10.670Z,28.30
2018-11-14T21:00:38.420Z,30.27
2018-11-14T21:03:06.125Z,29.67
2018-11-14T21:05:33.257Z,28.90
2018-11-14T21:08:00.367Z,30.70
2018-11-14T21:10:28.851Z,29.57
2018-11-14T21:12:56.353Z,29.70
2018-11-14T21:15:24.659Z,28.33
2018-11-14T21:17:52.892Z,29.27
2018-11-14T21:20:19.948Z,28.80
2018-11-14T21:22:47.153Z,26.23
2018-11-14T21:25:15.492Z,28.00
2018-11-14T21:27:43.746Z,25.83
2018-11-14T21:30:11.603Z,27.43
2018-11-14T21:32:39.584Z,27.27
2018-11-14T21:35:07.909Z,27.03
2018-11-14T21:37:34.962Z,27.93
2018-11-14T21:40:02.080Z,26.10
2018-11-14T21:42:29.215Z,30.03
2018-11-14T21:44:56.343Z,27.83
2018-11-14T21:47:29.408Z,25.57
2018-11-14T21:49:56.553Z,25.53
2018-11-14T21:52:23.602Z,25.87
2018-11-14T21:54:50.795Z,24.20
2018-11-14T21:57:17.967Z,23.90
2018-11-14T21:59:45.254Z,24.00
2018-11-14T22:02:12.747Z,24.50
2018-11-14T22:04:39.852Z,24.93
2018-11-14T22:07:07.003Z,24.63
2018-11-14T22:09:34.071Z,24.90
2018-11-14T22:12:01.100Z,26.40
2018-11-14T22:14:28.381Z,24.13
2018-11-14T22:16:57.550Z,25.60
2018-11-14T22:19:25.026Z,25.07
2018-11-14T22:21:52.069Z,25.83
2018-11-14T22:24:19.428Z,26.10
2018-11-14T22:26:47.385Z,25.13
2018-11-14T22:29:14.503Z,25.33
2018-11-14T22:31:41.619Z,25.80
2018-11-14T22:34:08.660Z,27.63
2018-11-14T22:36:35.707Z,26.77
2018-11-14T22:39:04.370Z,25.23
2018-11-14T22:41:31.435Z,22.20
2018-11-14T22:43:58.543Z,24.90
2018-11-14T22:46:25.676Z,25.03
2018-11-14T22:48:52.711Z,24.63
2018-11-14T22:51:19.756Z,22.10
2018-11-14T22:53:47.176Z,28.07
2018-11-14T22:56:14.212Z,24.60
2018-11-14T22:58:41.320Z,25.70
2018-11-14T23:01:08.465Z,25.87
2018-11-14T23:03:35.592Z,26.60
2018-11-14T23:06:02.664Z,25.77
2018-11-14T23:08:30.080Z,25.63
2018-11-14T23:10:57.338Z,26.93
2018-11-14T23:13:24.376Z,24.20
2018-11-14T23:15:51.415Z,25.80
2018-11-14T23:18:18.585Z,25.97
2018-11-14T23:20:45.696Z,23.90
2018-11-14T23:23:12.764Z,24.20
2018-11-14T23:25:40.727Z,23.67
2018-11-14T23:28:07.815Z,23.80
2018-11-14T23:30:34.988Z,22.73
2018-11-14T23:33:02.157Z,23.67
2018-11-14T23:35:30.446Z,21.70
2018-11-14T23:37:58.948Z,21.33
2018-11-14T23:40:26.343Z,23.47
2018-11-14T23:42:53.373Z,22.53
2018-11-14T23:45:21.631Z,21.23
2018-11-14T23:47:49.209Z,20.57
2018-11-14T23:50:17.595Z,20.73
2018-11-14T23:52:45.764Z,20.40
2018-11-14T23:55:13.704Z,20.10
2018-11-14T23:57:40.991Z,19.83
